Time;durP1;ratioP1;P1;durP2;ratioP2;P2;SDS_P1;SDS_P2;PMS_P1;PMS_P2;Temp;Humidity;BMP_temperature;BMP_pressure;BME280_temperature;BME280_humidity;BME280_pressure;Samples;Min_cycle;Max_cycle;Signal;HPM_P1;HPM_P2
2022/04/25 00:00:04;;;;;;;4.47;3.60;;;9.80;77.00;;;;;;5074585;28;20059;-59
2022/04/25 00:02:30;;;;;;;6.07;3.20;;;9.80;77.10;;;;;;5072727;28;20032;-59
2022/04/25 00:04:55;;;;;;;4.90;2.92;;;9.70;77.10;;;;;;5073059;28;20047;-59
2022/04/25 00:07:21;;;;;;;4.80;3.00;;;9.70;77.10;;;;;;5074692;28;20024;-59
2022/04/25 00:09:46;;;;;;;4.15;2.80;;;9.70;77.10;;;;;;5074670;28;20032;-59
2022/04/25 00:12:12;;;;;;;4.50;3.03;;;9.60;77.30;;;;;;5074536;28;20025;-58
2022/04/25 00:14:37;;;;;;;4.78;2.97;;;9.60;77.50;;;;;;5074387;28;20032;-59
2022/04/25 00:17:03;;;;;;;3.42;2.60;;;9.60;77.60;;;;;;5074572;28;20033;-59
2022/04/25 00:19:29;;;;;;;4.97;3.00;;;9.60;78.20;;;;;;5073846;28;20396;-59
2022/04/25 00:21:55;;;;;;;4.70;3.13;;;9.60;77.90;;;;;;5074547;28;20029;-59
2022/04/25 00:24:20;;;;;;;6.78;4.18;;;9.50;77.90;;;;;;5074209;28;20028;-59
2022/04/25 00:26:46;;;;;;;6.95;3.95;;;9.50;78.20;;;;;;5074490;28;20048;-59
2022/04/25 00:29:12;;;;;;;7.25;3.97;;;9.40;78.30;;;;;;5074187;28;20145;-59
2022/04/25 00:31:39;;;;;;;5.55;3.45;;;9.30;78.60;;;;;;5074093;28;20472;-59
2022/04/25 00:34:05;;;;;;;6.07;2.95;;;9.30;78.80;;;;;;5074327;28;20077;-59
2022/04/25 00:36:30;;;;;;;4.68;3.45;;;9.30;78.80;;;;;;5073835;28;20433;-59
2022/04/25 00:38:56;;;;;;;7.72;4.28;;;9.30;78.70;;;;;;5073979;28;20040;-59
2022/04/25 00:41:21;;;;;;;4.97;3.83;;;9.20;79.00;;;;;;5072772;28;20516;-59
2022/04/25 00:43:47;;;;;;;5.70;3.72;;;9.20;79.10;;;;;;5073903;28;20038;-59
2022/04/25 00:46:20;;;;;;;5.45;4.00;;;9.20;79.30;;;;;;5073798;28;20499;-59
2022/04/25 00:48:46;;;;;;;4.88;3.60;;;9.20;79.50;;;;;;5073839;28;20032;-59
2022/04/25 00:51:12;;;;;;;6.45;4.45;;;9.10;79.80;;;;;;5073636;28;20033;-59
2022/04/25 00:53:38;;;;;;;5.82;3.50;;;9.00;80.00;;;;;;5073610;28;20040;-59
2022/04/25 00:56:04;;;;;;;6.05;4.20;;;9.00;80.00;;;;;;5073731;28;20021;-59
2022/04/25 00:58:30;;;;;;;8.25;4.10;;;9.00;80.40;;;;;;5073402;28;20040;-59
2022/04/25 01:00:55;;;;;;;5.10;4.00;;;9.00;80.60;;;;;;5073789;28;20029;-59
2022/04/25 01:03:21;;;;;;;5.25;3.80;;;8.90;80.70;;;;;;5073295;28;20468;-59
2022/04/25 01:05:46;;;;;;;5.18;4.00;;;8.90;80.70;;;;;;5073605;28;20056;-59
2022/04/25 01:08:12;;;;;;;5.85;4.10;;;8.90;80.90;;;;;;5072218;28;20494;-58
2022/04/25 01:10:37;;;;;;;6.25;4.32;;;8.90;81.00;;;;;;5073447;28;20032;-59
2022/04/25 01:13:03;;;;;;;5.68;3.80;;;8.90;81.10;;;;;;5073239;28;20028;-59
2022/04/25 01:15:30;;;;;;;6.93;3.70;;;8.90;81.00;;;;;;5071937;28;20032;-59
2022/04/25 01:17:56;;;;;;;6.60;3.65;;;8.90;80.90;;;;;;5073253;28;20044;-59
2022/04/25 01:20:21;;;;;;;5.57;3.38;;;8.90;80.80;;;;;;5073024;28;20029;-59
2022/04/25 01:28:37;;;;;;;4.43;3.30;;;8.90;80.70;;;;;;5072995;28;20063;-59
2022/04/25 01:31:02;;;;;;;6.03;3.53;;;8.80;80.60;;;;;;5072968;28;20052;-59
2022/04/25 01:33:28;;;;;;;4.20;2.90;;;8.80;80.90;;;;;;5072993;28;20341;-59
2022/04/25 01:35:54;;;;;;;6.53;3.50;;;8.80;81.00;;;;;;5072634;28;20509;-58
2022/04/25 01:38:19;;;;;;;8.05;4.57;;;8.70;81.00;;;;;;5072807;28;20031;-59
2022/04/25 01:40:45;;;;;;;8.07;5.20;;;8.70;81.50;;;;;;5072803;28;20066;-59
2022/04/25 01:43:10;;;;;;;7.45;4.93;;;8.60;81.90;;;;;;5072670;28;20056;-59
2022/04/25 01:45:36;;;;;;;7.30;4.38;;;8.60;82.20;;;;;;5071603;28;20064;-59
2022/04/25 01:48:01;;;;;;;6.65;4.07;;;8.60;82.20;;;;;;5072690;28;20107;-59
2022/04/25 01:50:27;;;;;;;4.55;3.65;;;8.60;82.20;;;;;;5072387;28;20028;-59
2022/04/25 01:52:52;;;;;;;5.80;3.67;;;8.50;82.20;;;;;;5072494;28;20077;-58
2022/04/25 01:55:18;;;;;;;5.90;3.60;;;8.50;82.20;;;;;;5072618;28;20395;-58
2022/04/25 01:57:43;;;;;;;4.57;3.40;;;8.50;82.30;;;;;;5072595;28;20472;-58
2022/04/25 02:00:10;;;;;;;6.03;3.47;;;8.60;82.30;;;;;;5071191;28;20400;-58
2022/04/25 02:02:36;;;;;;;4.70;2.97;;;8.60;82.20;;;;;;5072496;28;20396;-58
2022/04/25 02:05:04;;;;;;;5.38;3.63;;;8.60;82.20;;;;;;5072246;28;20024;-59
2022/04/25 02:07:30;;;;;;;7.32;3.33;;;8.50;82.20;;;;;;5072365;28;20025;-58
2022/04/25 02:09:55;;;;;;;5.75;4.03;;;8.50;82.20;;;;;;5072506;28;20074;-58
2022/04/25 02:12:22;;;;;;;6.75;3.50;;;8.50;82.30;;;;;;5072350;28;20115;-59
2022/04/25 02:14:47;;;;;;;6.45;3.40;;;8.40;82.40;;;;;;5072432;28;20032;-59
2022/04/25 02:17:16;;;;;;;5.32;3.60;;;8.40;82.60;;;;;;5072164;28;20040;-59
2022/04/25 02:19:44;;;;;;;5.15;3.42;;;8.40;82.70;;;;;;5072176;28;20431;-59
2022/04/25 02:22:10;;;;;;;5.28;3.90;;;8.40;82.80;;;;;;5072318;28;20115;-58
2022/04/25 02:24:36;;;;;;;6.03;4.00;;;8.40;82.90;;;;;;5072342;28;20021;-59
2022/04/25 02:27:03;;;;;;;6.05;3.85;;;8.40;82.90;;;;;;5070447;28;20472;-59
2022/04/25 02:29:33;;;;;;;5.18;3.22;;;8.40;82.90;;;;;;5070996;28;20067;-59
2022/04/25 02:32:01;;;;;;;4.93;3.45;;;8.40;83.00;;;;;;5072208;28;20045;-59
2022/04/25 02:34:28;;;;;;;5.43;3.95;;;8.30;83.00;;;;;;5072031;28;20076;-59
2022/04/25 02:36:55;;;;;;;4.88;3.30;;;8.30;83.00;;;;;;5071935;28;20029;-59
2022/04/25 02:39:25;;;;;;;5.28;3.22;;;8.30;83.00;;;;;;5071978;28;20515;-59
2022/04/25 02:41:51;;;;;;;5.30;3.22;;;8.30;83.00;;;;;;5071978;28;20039;-59
2022/04/25 02:44:17;;;;;;;5.00;3.55;;;8.30;83.20;;;;;;5072045;28;20373;-59
2022/04/25 02:46:43;;;;;;;6.20;3.85;;;8.20;83.30;;;;;;5071995;28;20021;-59
2022/04/25 02:49:09;;;;;;;5.10;3.35;;;8.20;83.40;;;;;;5071950;28;20029;-59
2022/04/25 02:51:34;;;;;;;4.65;3.17;;;8.30;83.50;;;;;;5071801;28;20480;-59
2022/04/25 02:54:00;;;;;;;5.97;3.75;;;8.20;83.50;;;;;;5071802;28;20071;-59
2022/04/25 02:56:25;;;;;;;5.05;3.90;;;8.20;83.60;;;;;;5072018;28;20107;-58
2022/04/25 02:58:51;;;;;;;6.13;3.78;;;8.20;83.70;;;;;;5071722;28;20103;-59
2022/04/25 03:01:16;;;;;;;4.70;3.55;;;8.20;83.90;;;;;;5071882;28;20388;-59
2022/04/25 03:03:42;;;;;;;5.22;4.10;;;8.10;84.00;;;;;;5071697;28;20507;-59
2022/04/25 03:06:09;;;;;;;6.22;3.80;;;8.10;84.10;;;;;;5071787;28;20020;-58
2022/04/25 03:08:36;;;;;;;6.70;3.55;;;8.10;84.20;;;;;;5071746;28;20028;-58
2022/04/25 03:11:06;;;;;;;5.35;3.60;;;8.10;84.30;;;;;;5071865;28;20491;-59
2022/04/25 03:13:34;;;;;;;;;;;8.10;84.30;;;;;;5072025;28;20051;-58
2022/04/25 03:15:59;;;;;;;7.53;3.67;;;7.90;84.30;;;;;;5071820;28;19908;-59
2022/04/25 03:18:25;;;;;;;7.32;5.00;;;7.80;84.70;;;;;;5070274;28;20044;-59
2022/04/25 03:20:51;;;;;;;7.50;4.88;;;7.80;85.00;;;;;;5071587;28;20025;-59
2022/04/25 03:23:21;;;;;;;5.80;4.78;;;7.80;85.30;;;;;;5071398;28;20365;-58
2022/04/25 03:25:47;;;;;;;7.80;5.50;;;7.70;85.50;;;;;;5070456;28;20021;-59
2022/04/25 03:28:13;;;;;;;7.30;5.03;;;7.70;85.90;;;;;;5071366;28;20039;-59
2022/04/25 03:30:39;;;;;;;5.90;4.45;;;7.60;86.30;;;;;;5071547;28;20024;-59
2022/04/25 03:33:05;;;;;;;8.82;5.82;;;7.60;86.50;;;;;;5070249;28;20025;-58
2022/04/25 03:35:30;;;;;;;6.85;5.03;;;7.50;87.30;;;;;;5071371;28;20031;-58
2022/04/25 03:37:57;;;;;;;9.55;6.05;;;7.60;86.90;;;;;;5072079;28;20039;-58
2022/04/25 03:40:24;;;;;;;8.00;5.72;;;7.50;87.10;;;;;;5075065;28;20025;-59
2022/04/25 03:42:50;;;;;;;7.65;5.22;;;7.50;87.30;;;;;;5074990;28;20056;-58
2022/04/25 03:45:18;;;;;;;10.02;5.57;;;7.50;87.40;;;;;;5074965;28;20398;-59
2022/04/25 03:47:45;;;;;;;7.47;5.25;;;7.50;87.60;;;;;;5075321;28;20020;-58
2022/04/25 03:50:11;;;;;;;6.68;5.05;;;7.40;87.70;;;;;;5074938;28;20100;-59
2022/04/25 03:52:38;;;;;;;7.68;5.03;;;7.40;87.80;;;;;;5074771;28;20074;-58
2022/04/25 03:57:53;;;;;;;8.27;6.28;;;7.40;88.00;;;;;;5075099;28;20102;-59
2022/04/25 04:00:18;;;;;;;12.95;8.07;;;7.30;88.40;;;;;;5073428;28;20102;-59
2022/04/25 04:02:44;;;;;;;11.25;7.82;;;7.30;89.30;;;;;;5074695;28;20509;-58
2022/04/25 04:05:11;;;;;;;12.82;7.97;;;7.30;90.00;;;;;;5074129;28;20024;-58
2022/04/25 04:07:37;;;;;;;12.32;7.75;;;7.30;90.20;;;;;;5074617;28;20042;-58
2022/04/25 04:10:03;;;;;;;11.15;7.60;;;7.30;90.50;;;;;;5074496;28;20035;-58
2022/04/25 04:12:34;;;;;;;13.82;8.63;;;7.30;91.00;;;;;;5074575;28;20028;-58
2022/04/25 04:15:02;;;;;;;10.65;7.72;;;7.30;91.00;;;;;;5074468;28;20120;-59
2022/04/25 04:17:28;;;;;;;11.80;8.07;;;7.30;91.20;;;;;;5074379;28;20093;-59
2022/04/25 04:19:54;;;;;;;11.57;8.23;;;7.30;91.40;;;;;;5074289;28;20430;-58
2022/04/25 04:22:23;;;;;;;10.75;8.00;;;7.30;91.60;;;;;;5074440;28;20059;-59
2022/04/25 04:24:49;;;;;;;12.30;7.20;;;7.30;91.80;;;;;;5074075;28;20017;-58
2022/04/25 04:27:15;;;;;;;13.55;8.13;;;7.30;91.90;;;;;;5074334;28;20078;-58
2022/04/25 04:29:41;;;;;;;12.15;6.97;;;7.40;92.10;;;;;;5074351;28;20508;-58
2022/04/25 04:32:07;;;;;;;12.10;7.72;;;7.40;92.10;;;;;;5074282;28;20484;-58
2022/04/25 04:34:36;;;;;;;11.70;7.10;;;7.40;92.20;;;;;;5074016;28;20525;-58
2022/04/25 04:37:06;;;;;;;13.73;8.32;;;7.40;92.20;;;;;;5074265;28;20468;-58
2022/04/25 04:39:32;;;;;;;11.20;8.18;;;7.40;92.40;;;;;;5073997;28;20079;-58
2022/04/25 04:41:58;;;;;;;11.73;8.25;;;7.40;92.60;;;;;;5074073;28;20480;-59
2022/04/25 04:44:23;;;;;;;9.23;7.05;;;7.40;92.70;;;;;;5073904;28;20047;-59
2022/04/25 04:46:49;;;;;;;9.43;7.00;;;7.40;92.70;;;;;;5073980;28;20108;-59
2022/04/25 04:49:15;;;;;;;9.13;6.90;;;7.50;92.80;;;;;;5073436;28;20112;-58
2022/04/25 04:51:42;;;;;;;10.23;7.63;;;7.50;92.80;;;;;;5073936;28;20029;-58
2022/04/25 04:54:07;;;;;;;14.30;8.93;;;7.50;92.90;;;;;;5073555;28;20079;-59
2022/04/25 04:56:33;;;;;;;11.13;7.35;;;7.50;93.10;;;;;;5073901;28;20028;-58
2022/04/25 04:58:59;;;;;;;11.57;7.63;;;7.60;93.20;;;;;;5072307;28;20476;-59
2022/04/25 05:01:28;;;;;;;11.90;7.45;;;7.60;93.20;;;;;;5073690;28;20028;-58
2022/04/25 05:03:58;;;;;;;11.32;7.32;;;7.60;93.30;;;;;;5073408;28;20048;-58
2022/04/25 05:06:27;;;;;;;;;;;7.60;93.40;;;;;;5072701;28;20021;-59
2022/04/25 05:08:53;;;;;;;12.38;8.55;;;7.50;93.50;;;;;;5073505;28;20268;-59
2022/04/25 05:11:18;;;;;;;12.85;7.93;;;7.50;93.90;;;;;;5072241;28;20535;-58
2022/04/25 05:13:44;;;;;;;11.00;8.38;;;7.50;94.00;;;;;;5073293;28;20033;-58
2022/04/25 05:16:09;;;;;;;10.60;7.65;;;7.50;94.00;;;;;;5073358;28;20028;-58
2022/04/25 05:18:35;;;;;;;11.40;8.43;;;7.60;94.00;;;;;;5073165;28;20087;-58
2022/04/25 05:21:02;;;;;;;11.20;7.72;;;7.60;94.10;;;;;;5071906;28;20391;-58
2022/04/25 05:23:28;;;;;;;8.38;6.63;;;7.70;94.20;;;;;;5073141;28;20027;-59
2022/04/25 05:25:58;;;;;;;8.98;6.75;;;7.70;94.10;;;;;;5067080;28;20492;-58
2022/04/25 05:28:25;;;;;;;10.05;6.82;;;7.80;94.10;;;;;;5062166;28;20008;-58
2022/04/25 05:30:51;;;;;;;12.98;7.38;;;7.80;94.00;;;;;;5059560;28;20052;-58
2022/04/25 05:33:18;;;;;;;9.45;7.38;;;7.90;94.10;;;;;;5071037;28;20034;-59
2022/04/25 05:35:43;;;;;;;11.95;8.02;;;7.90;94.10;;;;;;5079761;28;20032;-58
2022/04/25 05:38:10;;;;;;;12.75;9.07;;;7.90;94.10;;;;;;5066343;28;20226;-59
2022/04/25 05:40:36;;;;;;;13.70;8.88;;;8.00;94.20;;;;;;5068906;28;20025;-58
2022/04/25 05:43:04;;;;;;;11.52;7.80;;;8.00;94.40;;;;;;5071429;28;20543;-58
2022/04/25 05:45:30;;;;;;;13.57;7.60;;;8.00;94.50;;;;;;5068805;28;20507;-58
2022/04/25 05:47:57;;;;;;;10.35;7.72;;;8.00;94.50;;;;;;5068677;28;20506;-58
2022/04/25 05:53:14;;;;;;;11.77;7.95;;;8.10;94.60;;;;;;5066493;28;20034;-59
2022/04/25 05:55:41;;;;;;;13.35;9.43;;;8.10;94.60;;;;;;5074178;28;20119;-59
2022/04/25 05:58:07;;;;;;;12.10;9.25;;;8.20;94.80;;;;;;5070783;28;20086;-58
2022/04/25 06:00:33;;;;;;;12.68;9.43;;;8.20;94.90;;;;;;5062892;28;20024;-59
2022/04/25 06:03:01;;;;;;;14.45;9.93;;;8.20;95.00;;;;;;5074288;28;20460;-57
2022/04/25 06:05:27;;;;;;;14.57;11.48;;;8.20;95.20;;;;;;5068966;28;20506;-58
2022/04/25 06:07:53;;;;;;;13.73;9.82;;;8.20;95.60;;;;;;5072075;28;20024;-58
2022/04/25 06:10:20;;;;;;;13.13;9.38;;;8.20;95.70;;;;;;5077923;28;20043;-58
2022/04/25 06:12:48;;;;;;;15.75;10.60;;;8.30;95.70;;;;;;5070082;28;20564;-58
2022/04/25 06:15:16;;;;;;;16.00;10.55;;;8.30;95.80;;;;;;5064308;28;20058;-58
2022/04/25 06:17:42;;;;;;;14.18;9.95;;;8.30;96.00;;;;;;5064401;28;20036;-58
2022/04/25 06:20:09;;;;;;;15.75;10.88;;;8.30;96.10;;;;;;5063410;28;20063;-58
2022/04/25 06:22:36;;;;;;;13.70;9.35;;;8.30;96.20;;;;;;5083712;28;20567;-58
2022/04/25 06:25:06;;;;;;;13.95;9.25;;;8.30;96.20;;;;;;5065515;28;20391;-58
2022/04/25 06:27:32;;;;;;;14.15;10.13;;;8.40;96.10;;;;;;5078419;28;20430;-58
2022/04/25 06:29:58;;;;;;;14.10;10.15;;;8.40;96.20;;;;;;5062949;28;20430;-58
2022/04/25 06:32:25;;;;;;;15.43;10.50;;;8.50;96.20;;;;;;5056887;28;20544;-58
2022/04/25 06:34:51;;;;;;;16.70;10.30;;;8.50;96.20;;;;;;5062766;28;20112;-59
2022/04/25 06:37:17;;;;;;;12.70;9.02;;;8.60;96.30;;;;;;5062524;28;20079;-58
2022/04/25 06:39:42;;;;;;;14.65;10.15;;;8.60;96.20;;;;;;5067909;28;21186;-58
2022/04/25 06:42:09;;;;;;;14.68;10.00;;;8.70;96.20;;;;;;5067425;28;20023;-58
2022/04/25 06:44:36;;;;;;;15.65;11.20;;;8.70;96.20;;;;;;5063746;28;20078;-58
2022/04/25 06:47:01;;;;;;;16.50;12.43;;;8.80;96.20;;;;;;5070135;28;20060;-59
2022/04/25 06:49:27;;;;;;;15.82;12.18;;;8.90;96.40;;;;;;5090643;28;20055;-58
2022/04/25 06:51:59;;;;;;;15.85;11.90;;;8.90;96.40;;;;;;5078349;28;20100;-58
2022/04/25 06:54:26;;;;;;;20.95;15.27;;;9.00;96.50;;;;;;5071490;28;20028;-58
2022/04/25 06:56:56;;;;;;;18.92;14.55;;;9.10;96.70;;;;;;5071527;28;20025;-58
2022/04/25 06:59:23;;;;;;;19.23;14.90;;;9.10;96.70;;;;;;5071136;28;20112;-59
2022/04/25 07:01:49;;;;;;;23.50;16.17;;;9.10;96.80;;;;;;5069605;28;20421;-58
2022/04/25 07:04:16;;;;;;;21.70;15.32;;;9.10;97.10;;;;;;5071337;28;20020;-58
2022/04/25 07:06:43;;;;;;;25.85;17.60;;;9.10;97.30;;;;;;5085334;28;20021;-58
2022/04/25 07:09:12;;;;;;;22.45;17.02;;;9.10;97.40;;;;;;5070965;28;20020;-59
2022/04/25 07:11:41;;;;;;;23.08;17.65;;;9.10;97.50;;;;;;5070996;28;20508;-58
2022/04/25 07:14:06;;;;;;;22.10;16.42;;;9.10;97.60;;;;;;5074177;28;20082;-58
2022/04/25 07:16:32;;;;;;;22.48;17.20;;;9.10;97.70;;;;;;5073944;28;20029;-58
2022/04/25 07:18:57;;;;;;;22.05;17.15;;;9.10;97.80;;;;;;5075542;28;20484;-58
2022/04/25 07:29:48;;;;;;;23.63;18.85;;;9.20;98.20;;;;;;5075478;28;20089;-58
2022/04/25 07:32:15;;;;;;;29.10;21.58;;;9.20;98.40;;;;;;5074585;28;20462;-59
2022/04/25 07:34:42;;;;;;;23.63;18.40;;;9.20;98.50;;;;;;5074646;28;20457;-58
2022/04/25 07:37:08;;;;;;;19.98;16.15;;;9.30;98.50;;;;;;5074673;28;20480;-58
2022/04/25 07:39:33;;;;;;;20.95;17.15;;;9.30;98.50;;;;;;5073566;28;20031;-59
2022/04/25 07:41:59;;;;;;;20.65;16.13;;;9.40;98.50;;;;;;5074403;28;20024;-59
2022/04/25 07:44:26;;;;;;;21.90;17.52;;;9.40;98.40;;;;;;5074899;28;20032;-58
2022/04/25 07:46:51;;;;;;;20.95;16.33;;;9.40;98.50;;;;;;5074580;28;20020;-59
2022/04/25 07:49:17;;;;;;;21.23;16.40;;;9.40;98.50;;;;;;5074886;28;20081;-59
2022/04/25 07:51:42;;;;;;;20.55;15.63;;;9.40;98.50;;;;;;5073629;28;20433;-58
2022/04/25 07:54:09;;;;;;;19.00;14.60;;;9.50;98.50;;;;;;5074951;28;20141;-59
2022/04/25 07:56:36;;;;;;;18.80;14.43;;;9.60;98.60;;;;;;5074754;28;20024;-58
2022/04/25 07:59:02;;;;;;;18.15;14.65;;;9.60;98.60;;;;;;5074661;28;20074;-58
2022/04/25 08:01:29;;;;;;;19.33;14.70;;;9.60;98.70;;;;;;5074519;28;20016;-59
2022/04/25 08:03:55;;;;;;;18.08;14.30;;;9.60;98.80;;;;;;5074572;28;20468;-58
2022/04/25 08:06:21;;;;;;;19.65;15.45;;;9.70;98.90;;;;;;5074566;28;20024;-59
2022/04/25 08:08:49;;;;;;;18.80;15.30;;;9.60;99.10;;;;;;5039903;28;20082;-60
2022/04/25 08:11:14;;;;;;;19.58;14.45;;;9.70;99.20;;;;;;5048274;28;21148;-61
2022/04/25 08:19:22;;;;;;;14.93;12.85;;;9.70;99.40;;;;;;5054356;28;20052;-60
2022/04/25 08:21:48;;;;;;;17.08;14.27;;;9.70;99.40;;;;;;5072864;28;20024;-60
2022/04/25 08:24:14;;;;;;;16.02;12.38;;;9.70;99.40;;;;;;5070968;28;20048;-60
2022/04/25 08:26:40;;;;;;;17.05;13.23;;;9.70;99.40;;;;;;5073623;28;20855;-60
2022/04/25 08:29:06;;;;;;;17.77;13.73;;;9.70;99.40;;;;;;5070287;28;20029;-60
2022/04/25 08:31:33;;;;;;;18.40;13.77;;;9.70;99.40;;;;;;5069749;28;20047;-59
2022/04/25 08:34:00;;;;;;;17.55;13.63;;;9.80;99.50;;;;;;5073441;28;20029;-60
2022/04/25 08:36:25;;;;;;;18.67;15.13;;;9.80;99.60;;;;;;5073413;28;20104;-60
2022/04/25 08:38:51;;;;;;;19.60;14.85;;;9.80;99.60;;;;;;5072137;28;20115;-59
2022/04/25 08:41:23;;;;;;;20.30;14.55;;;9.90;99.50;;;;;;5073284;28;20028;-59
2022/04/25 08:43:53;;;;;;;17.33;14.10;;;9.90;99.30;;;;;;5068225;28;20112;-60
2022/04/25 08:46:21;;;;;;;17.48;13.77;;;9.90;99.10;;;;;;5060784;28;20108;-60
2022/04/25 08:48:47;;;;;;;17.73;13.57;;;10.00;99.00;;;;;;5055819;28;20044;-60
2022/04/25 08:51:14;;;;;;;15.88;12.13;;;10.00;98.80;;;;;;5064996;28;20031;-59
2022/04/25 08:53:41;;;;;;;20.45;14.63;;;10.10;98.70;;;;;;5072995;28;20028;-60
2022/04/25 08:56:10;;;;;;;17.15;14.25;;;10.10;98.50;;;;;;5073257;28;20105;-59
2022/04/25 08:58:40;;;;;;;21.33;14.68;;;10.10;98.50;;;;;;5073203;28;20029;-59
2022/04/25 09:01:09;;;;;;;18.88;14.65;;;10.10;98.50;;;;;;5056915;28;20031;-60
2022/04/25 09:03:35;;;;;;;17.40;13.30;;;10.10;98.60;;;;;;5072556;28;20025;-61
2022/04/25 09:06:00;;;;;;;18.08;13.98;;;10.10;98.60;;;;;;5072737;28;20099;-60
2022/04/25 09:08:26;;;;;;;19.23;14.02;;;10.20;98.90;;;;;;5073017;28;20031;-61
2022/04/25 09:12:09;;;;;;;18.23;14.77;;;10.30;98.50;;;;;;5072764;28;20098;-60
2022/04/25 09:13:37;;;;;;;20.17;14.98;;;10.20;98.40;;;;;;5072277;28;20085;-60
2022/04/25 09:16:04;;;;;;;16.25;13.52;;;10.20;98.50;;;;;;5072576;28;20427;-60
2022/04/25 09:18:30;;;;;;;17.85;13.80;;;10.30;98.40;;;;;;5072590;28;20051;-60
2022/04/25 09:20:58;;;;;;;17.58;13.50;;;10.30;98.40;;;;;;5072402;28;20111;-60
2022/04/25 09:23:23;;;;;;;21.60;15.23;;;10.30;98.30;;;;;;5072219;28;20116;-60
2022/04/25 09:26:15;;;;;;;21.98;16.75;;;10.30;98.20;;;;;;5072543;28;20103;-60
2022/04/25 09:28:51;;;;;;;19.63;13.82;;;10.30;98.10;;;;;;5072608;28;20025;-60
2022/04/25 09:31:18;;;;;;;17.60;13.82;;;10.40;98.20;;;;;;5072252;28;20094;-60
2022/04/25 09:33:44;;;;;;;18.77;14.57;;;10.40;98.10;;;;;;5072335;28;20053;-61
2022/04/25 09:36:10;;;;;;;18.45;15.05;;;10.50;97.80;;;;;;5071341;28;20086;-61
2022/04/25 09:38:38;;;;;;;22.48;16.70;;;10.60;97.60;;;;;;5070628;28;20024;-61
2022/04/25 09:41:13;;;;;;;23.50;17.95;;;10.70;97.40;;;;;;5071199;28;20029;-60
2022/04/25 09:43:40;;;;;;;21.42;16.45;;;10.70;97.10;;;;;;5069169;28;20033;-60
2022/04/25 09:46:07;;;;;;;21.20;16.10;;;10.70;97.00;;;;;;5072108;28;20025;-59
2022/04/25 09:48:33;;;;;;;21.85;16.95;;;10.70;96.90;;;;;;5071159;28;20376;-60
2022/04/25 09:51:11;;;;;;;26.55;18.10;;;10.70;96.80;;;;;;5071078;28;20496;-61
2022/04/25 09:53:50;;;;;;;23.42;17.88;;;10.70;96.70;;;;;;5071537;28;20105;-60
2022/04/25 09:56:18;;;;;;;25.38;19.02;;;10.70;96.60;;;;;;5072233;28;20021;-60
2022/04/25 09:58:56;;;;;;;24.10;17.98;;;10.60;96.60;;;;;;5072006;28;20025;-61
2022/04/25 10:01:22;;;;;;;24.50;17.60;;;10.60;96.60;;;;;;5071924;28;20372;-60
2022/04/25 10:03:48;;;;;;;21.60;16.23;;;10.70;96.60;;;;;;5071026;28;20013;-61
2022/04/25 10:06:14;;;;;;;17.38;14.13;;;10.80;96.60;;;;;;5066819;28;20031;-60
2022/04/25 10:08:41;;;;;;;22.35;16.70;;;10.80;96.40;;;;;;5070704;28;20024;-60
2022/04/25 10:11:07;;;;;;;19.77;15.50;;;10.90;96.20;;;;;;5070605;28;20392;-60
2022/04/25 10:13:34;;;;;;;25.48;18.02;;;11.00;96.10;;;;;;5071461;28;20506;-60
2022/04/25 10:16:01;;;;;;;20.65;16.08;;;11.00;95.90;;;;;;5071111;28;20495;-60
2022/04/25 10:18:31;;;;;;;27.77;20.02;;;11.00;95.80;;;;;;5071142;28;20040;-60
2022/04/25 10:20:57;;;;;;;;;;;11.00;95.60;;;;;;5071462;28;20021;-60
2022/04/25 10:23:24;;;;;;;22.25;16.65;;;11.00;95.60;;;;;;5069060;28;19908;-60
2022/04/25 10:25:52;;;;;;;24.83;17.73;;;11.00;95.70;;;;;;5069603;28;20023;-60
2022/04/25 10:28:29;;;;;;;23.45;17.85;;;11.00;95.60;;;;;;5069760;28;20028;-60
2022/04/25 10:31:02;;;;;;;23.10;17.77;;;11.10;95.50;;;;;;5069226;28;20016;-60
2022/04/25 10:33:49;;;;;;;20.98;15.85;;;11.10;95.40;;;;;;5070216;28;20395;-60
2022/04/25 10:36:37;;;;;;;21.92;15.77;;;11.20;95.40;;;;;;5068139;28;20101;-60
2022/04/25 10:39:13;;;;;;;24.90;18.00;;;11.30;95.30;;;;;;5069919;28;20032;-60
2022/04/25 10:44:26;;;;;;;24.75;18.52;;;11.20;95.30;;;;;;5070133;28;20036;-60
2022/04/25 10:47:04;;;;;;;21.15;16.63;;;11.20;95.20;;;;;;5070195;28;20025;-60
2022/04/25 10:49:34;;;;;;;27.23;18.92;;;11.20;95.00;;;;;;5073154;28;20107;-60
2022/04/25 10:52:00;;;;;;;24.23;18.02;;;11.20;95.00;;;;;;5074288;28;20365;-60
2022/04/25 10:54:30;;;;;;;21.98;15.70;;;11.20;95.00;;;;;;5071936;28;20043;-60
2022/04/25 10:57:07;;;;;;;16.67;14.27;;;11.20;94.90;;;;;;5074365;28;20029;-60
2022/04/25 10:59:33;;;;;;;20.92;16.85;;;11.40;94.80;;;;;;5073858;28;20036;-60
2022/04/25 11:01:59;;;;;;;21.70;16.17;;;11.40;94.70;;;;;;5074115;28;20025;-60
2022/04/25 11:04:25;;;;;;;22.98;17.23;;;11.40;94.50;;;;;;5069646;28;20100;-60
2022/04/25 11:07:24;;;;;;;23.67;17.08;;;11.50;94.30;;;;;;5072218;28;20046;-60
2022/04/25 11:09:50;;;;;;;22.38;17.17;;;11.60;94.00;;;;;;5071750;28;20451;-60
2022/04/25 11:12:16;;;;;;;24.92;16.92;;;11.70;93.90;;;;;;5071539;28;20431;-60
2022/04/25 11:15:01;;;;;;;20.50;17.20;;;11.80;93.80;;;;;;5072405;28;20020;-60
2022/04/25 11:17:27;;;;;;;21.45;15.15;;;11.80;93.40;;;;;;5070516;28;20213;-60
2022/04/25 11:19:54;;;;;;;20.50;16.38;;;11.80;93.50;;;;;;5069388;28;20521;-61
2022/04/25 11:22:38;;;;;;;21.25;14.57;;;11.80;93.40;;;;;;5073618;28;20103;-60
2022/04/25 11:25:30;;;;;;;20.98;15.48;;;11.90;93.30;;;;;;5074236;28;20040;-60
2022/04/25 11:28:10;;;;;;;25.05;17.52;;;11.90;93.30;;;;;;5072835;28;20033;-60
2022/04/25 11:30:36;;;;;;;;;;;11.90;93.30;;;;;;5063685;28;20033;-60
2022/04/25 11:33:10;;;;;;;22.63;16.92;;;11.80;93.40;;;;;;5073178;28;19908;-60
2022/04/25 11:35:42;;;;;;;24.65;15.88;;;11.80;93.30;;;;;;5069584;28;20077;-60
2022/04/25 11:38:08;;;;;;;21.23;16.35;;;11.90;93.20;;;;;;5073797;28;20047;-61
2022/04/25 11:40:34;;;;;;;20.90;15.93;;;11.90;93.00;;;;;;5074848;28;20464;-60
2022/04/25 11:43:03;;;;;;;21.13;16.88;;;12.00;92.90;;;;;;5074598;28;20369;-60
2022/04/25 11:45:29;;;;;;;18.40;14.27;;;12.00;92.80;;;;;;5074051;28;20028;-60
2022/04/25 11:47:55;;;;;;;21.15;16.40;;;12.10;92.70;;;;;;5073976;28;20496;-62
2022/04/25 11:50:21;;;;;;;22.52;16.63;;;12.20;92.60;;;;;;5070126;28;20122;-60
2022/04/25 11:52:57;;;;;;;21.30;16.10;;;12.30;92.40;;;;;;5067626;28;20107;-60
2022/04/25 11:55:34;;;;;;;23.08;16.15;;;12.40;92.30;;;;;;5073424;28;20062;-60
2022/04/25 11:58:00;;;;;;;24.90;17.67;;;12.50;92.20;;;;;;5074087;28;20480;-60
2022/04/25 12:00:25;;;;;;;23.27;17.23;;;12.50;91.90;;;;;;5072144;28;20021;-60
2022/04/25 12:02:51;;;;;;;22.00;15.77;;;12.60;91.70;;;;;;5069722;28;20049;-60
2022/04/25 12:05:33;;;;;;;24.88;16.83;;;12.60;91.70;;;;;;5072576;28;20024;-60
2022/04/25 12:16:14;;;;;;;23.08;16.55;;;12.50;91.00;;;;;;5072761;28;20097;-60
2022/04/25 12:18:52;;;;;;;23.33;16.63;;;12.40;90.90;;;;;;5061952;28;20053;-60
2022/04/25 12:21:18;;;;;;;22.85;16.40;;;12.40;90.70;;;;;;5059368;28;20036;-61
2022/04/25 12:23:51;;;;;;;19.35;14.90;;;12.30;90.40;;;;;;5073773;28;20400;-61
2022/04/25 12:26:25;;;;;;;20.27;13.68;;;12.40;90.50;;;;;;5071761;28;20028;-60
2022/04/25 12:28:56;;;;;;;20.60;13.45;;;12.30;90.50;;;;;;5072209;28;20016;-61
2022/04/25 12:31:22;;;;;;;19.08;13.77;;;12.30;90.60;;;;;;5070391;28;20029;-64
2022/04/25 12:33:50;;;;;;;17.92;13.23;;;12.30;90.60;;;;;;5063396;28;20043;-61
2022/04/25 12:36:27;;;;;;;17.85;12.93;;;12.30;90.60;;;;;;5064852;28;20052;-60
2022/04/25 12:39:13;;;;;;;15.02;11.40;;;12.40;90.60;;;;;;5071032;28;20495;-60
2022/04/25 12:41:58;;;;;;;15.95;12.25;;;12.40;90.60;;;;;;5068455;28;20142;-60
2022/04/25 12:44:27;;;;;;;15.25;11.20;;;12.50;90.60;;;;;;5065964;28;20028;-60
2022/04/25 12:47:04;;;;;;;15.70;12.07;;;12.50;90.70;;;;;;5070440;28;20029;-61
2022/04/25 12:49:35;;;;;;;13.48;10.68;;;12.60;90.60;;;;;;5071632;28;20025;-60
2022/04/25 12:52:02;;;;;;;13.32;10.15;;;12.60;90.70;;;;;;5065463;28;20079;-60
2022/04/25 12:54:33;;;;;;;13.70;10.27;;;12.60;90.70;;;;;;5064757;28;20104;-60
2022/04/25 12:57:04;;;;;;;14.52;11.40;;;12.60;90.60;;;;;;5071301;28;20020;-61
2022/04/25 12:59:32;;;;;;;16.67;13.20;;;12.70;90.50;;;;;;5070928;28;20028;-60
2022/04/25 13:02:02;;;;;;;13.98;11.07;;;12.70;90.30;;;;;;5068598;28;20023;-60
2022/04/25 13:04:28;;;;;;;18.95;13.82;;;12.70;90.20;;;;;;5071510;28;20108;-62
2022/04/25 13:06:54;;;;;;;16.40;12.88;;;12.70;90.10;;;;;;5070225;28;20107;-60
2022/04/25 13:09:19;;;;;;;17.10;14.05;;;12.60;90.00;;;;;;5071405;28;20064;-59
2022/04/25 13:11:45;;;;;;;16.48;12.90;;;12.60;90.00;;;;;;5070836;28;20541;-59
2022/04/25 13:14:11;;;;;;;15.88;12.90;;;12.50;89.90;;;;;;5071854;28;20028;-59
2022/04/25 13:16:36;;;;;;;20.77;12.93;;;12.40;89.90;;;;;;5071552;28;20013;-59
2022/04/25 13:19:02;;;;;;;19.10;13.43;;;12.50;90.00;;;;;;5066086;28;20120;-59
2022/04/25 13:21:28;;;;;;;16.55;12.35;;;12.50;89.80;;;;;;5069019;28;20105;-59